sensor_id;sensor_type;location;lat;lon;timestamp;P1;durP1;ratioP1;P2;durP2;ratioP2
16994;SDS011;8614;48.522;9.206;2022-07-29T00:00:50;13.00;;;12.10;;
16994;SDS011;8614;48.522;9.206;2022-07-29T00:03:17;13.77;;;12.87;;
16994;SDS011;8614;48.522;9.206;2022-07-29T00:05:44;12.77;;;11.87;;
16994;SDS011;8614;48.522;9.206;2022-07-29T00:08:10;12.77;;;11.77;;
16994;SDS011;8614;48.522;9.206;2022-07-29T00:10:37;12.10;;;11.30;;
16994;SDS011;8614;48.522;9.206;2022-07-29T00:13:05;12.57;;;11.67;;
16994;SDS011;8614;48.522;9.206;2022-07-29T00:15:32;13.07;;;12.17;;
16994;SDS011;8614;48.522;9.206;2022-07-29T00:17:59;11.73;;;10.87;;
16994;SDS011;8614;48.522;9.206;2022-07-29T00:20:26;13.33;;;12.30;;
16994;SDS011;8614;48.522;9.206;2022-07-29T00:22:53;13.00;;;12.10;;
16994;SDS011;8614;48.522;9.206;2022-07-29T00:25:20;12.50;;;11.57;;
16994;SDS011;8614;48.522;9.206;2022-07-29T00:27:47;12.77;;;11.97;;
16994;SDS011;8614;48.522;9.206;2022-07-29T00:30:15;13.23;;;12.30;;
16994;SDS011;8614;48.522;9.206;2022-07-29T00:32:42;12.60;;;11.70;;
16994;SDS011;8614;48.522;9.206;2022-07-29T00:35:08;12.70;;;11.80;;
16994;SDS011;8614;48.522;9.206;2022-07-29T00:37:53;12.73;;;11.87;;
16994;SDS011;8614;48.522;9.206;2022-07-29T00:40:20;12.87;;;11.97;;
16994;SDS011;8614;48.522;9.206;2022-07-29T00:42:48;12.23;;;11.43;;
16994;SDS011;8614;48.522;9.206;2022-07-29T00:45:18;13.47;;;12.57;;
16994;SDS011;8614;48.522;9.206;2022-07-29T00:47:46;7.07;;;6.43;;
16994;SDS011;8614;48.522;9.206;2022-07-29T00:50:13;9.37;;;7.00;;
16994;SDS011;8614;48.522;9.206;2022-07-29T00:52:41;7.27;;;6.57;;
16994;SDS011;8614;48.522;9.206;2022-07-29T00:55:09;12.90;;;11.93;;
16994;SDS011;8614;48.522;9.206;2022-07-29T00:57:37;14.47;;;13.37;;
16994;SDS011;8614;48.522;9.206;2022-07-29T01:00:11;13.97;;;13.03;;
16994;SDS011;8614;48.522;9.206;2022-07-29T01:02:41;7.23;;;6.53;;
16994;SDS011;8614;48.522;9.206;2022-07-29T01:05:08;7.57;;;6.87;;
16994;SDS011;8614;48.522;9.206;2022-07-29T01:07:37;13.20;;;12.30;;
16994;SDS011;8614;48.522;9.206;2022-07-29T01:10:06;13.90;;;13.00;;
16994;SDS011;8614;48.522;9.206;2022-07-29T01:12:33;13.57;;;12.67;;
16994;SDS011;8614;48.522;9.206;2022-07-29T01:15:03;14.00;;;13.10;;
16994;SDS011;8614;48.522;9.206;2022-07-29T01:17:45;14.37;;;13.37;;
16994;SDS011;8614;48.522;9.206;2022-07-29T01:20:20;14.20;;;13.27;;
16994;SDS011;8614;48.522;9.206;2022-07-29T01:26:04;14.00;;;13.00;;
16994;SDS011;8614;48.522;9.206;2022-07-29T01:31:38;6.97;;;6.27;;
16994;SDS011;8614;48.522;9.206;2022-07-29T01:34:12;7.47;;;6.77;;
16994;SDS011;8614;48.522;9.206;2022-07-29T01:36:46;8.00;;;7.30;;
16994;SDS011;8614;48.522;9.206;2022-07-29T01:39:17;7.80;;;7.00;;
16994;SDS011;8614;48.522;9.206;2022-07-29T01:41:49;8.80;;;8.00;;
16994;SDS011;8614;48.522;9.206;2022-07-29T01:44:25;13.70;;;12.70;;
16994;SDS011;8614;48.522;9.206;2022-07-29T01:46:57;11.63;;;10.83;;
16994;SDS011;8614;48.522;9.206;2022-07-29T01:49:27;12.13;;;11.13;;
16994;SDS011;8614;48.522;9.206;2022-07-29T01:51:59;12.40;;;11.50;;
16994;SDS011;8614;48.522;9.206;2022-07-29T01:54:32;12.80;;;12.00;;
16994;SDS011;8614;48.522;9.206;2022-07-29T01:57:03;13.30;;;12.40;;
16994;SDS011;8614;48.522;9.206;2022-07-29T01:59:34;13.33;;;12.37;;
16994;SDS011;8614;48.522;9.206;2022-07-29T02:02:03;13.37;;;12.47;;
16994;SDS011;8614;48.522;9.206;2022-07-29T02:04:33;13.50;;;12.40;;
16994;SDS011;8614;48.522;9.206;2022-07-29T02:07:02;11.13;;;10.33;;
16994;SDS011;8614;48.522;9.206;2022-07-29T02:09:32;7.97;;;7.27;;
16994;SDS011;8614;48.522;9.206;2022-07-29T02:12:01;8.47;;;7.70;;
16994;SDS011;8614;48.522;9.206;2022-07-29T02:14:30;11.80;;;11.00;;
16994;SDS011;8614;48.522;9.206;2022-07-29T02:17:02;11.47;;;10.67;;
16994;SDS011;8614;48.522;9.206;2022-07-29T02:19:29;12.10;;;11.30;;
16994;SDS011;8614;48.522;9.206;2022-07-29T02:21:58;11.93;;;11.03;;
16994;SDS011;8614;48.522;9.206;2022-07-29T02:24:27;7.73;;;7.03;;
16994;SDS011;8614;48.522;9.206;2022-07-29T02:26:55;6.67;;;6.07;;
16994;SDS011;8614;48.522;9.206;2022-07-29T02:29:25;6.47;;;5.87;;
16994;SDS011;8614;48.522;9.206;2022-07-29T02:31:55;7.40;;;6.70;;
16994;SDS011;8614;48.522;9.206;2022-07-29T02:34:25;7.57;;;6.77;;
16994;SDS011;8614;48.522;9.206;2022-07-29T02:36:53;7.23;;;6.63;;
16994;SDS011;8614;48.522;9.206;2022-07-29T02:39:21;7.70;;;6.90;;
16994;SDS011;8614;48.522;9.206;2022-07-29T02:41:51;7.50;;;6.80;;
16994;SDS011;8614;48.522;9.206;2022-07-29T02:44:23;7.60;;;6.90;;
16994;SDS011;8614;48.522;9.206;2022-07-29T02:46:52;8.27;;;7.50;;
16994;SDS011;8614;48.522;9.206;2022-07-29T02:49:28;12.00;;;11.00;;
16994;SDS011;8614;48.522;9.206;2022-07-29T02:52:01;13.20;;;12.27;;
16994;SDS011;8614;48.522;9.206;2022-07-29T02:54:30;12.77;;;11.87;;
16994;SDS011;8614;48.522;9.206;2022-07-29T02:57:00;12.90;;;12.00;;
16994;SDS011;8614;48.522;9.206;2022-07-29T02:59:35;13.43;;;12.53;;
16994;SDS011;8614;48.522;9.206;2022-07-29T03:02:03;14.30;;;13.40;;
16994;SDS011;8614;48.522;9.206;2022-07-29T03:04:33;15.20;;;14.20;;
16994;SDS011;8614;48.522;9.206;2022-07-29T03:07:01;13.50;;;12.60;;
16994;SDS011;8614;48.522;9.206;2022-07-29T03:09:30;13.60;;;12.60;;
16994;SDS011;8614;48.522;9.206;2022-07-29T03:11:58;14.00;;;12.80;;
16994;SDS011;8614;48.522;9.206;2022-07-29T03:14:26;13.80;;;12.80;;
16994;SDS011;8614;48.522;9.206;2022-07-29T03:16:54;16.87;;;15.57;;
16994;SDS011;8614;48.522;9.206;2022-07-29T03:19:21;17.47;;;16.27;;
16994;SDS011;8614;48.522;9.206;2022-07-29T03:21:49;17.67;;;16.33;;
16994;SDS011;8614;48.522;9.206;2022-07-29T03:24:27;15.90;;;14.77;;
16994;SDS011;8614;48.522;9.206;2022-07-29T03:26:55;15.00;;;13.90;;
16994;SDS011;8614;48.522;9.206;2022-07-29T03:29:23;15.23;;;14.13;;
16994;SDS011;8614;48.522;9.206;2022-07-29T03:31:50;15.50;;;14.40;;
16994;SDS011;8614;48.522;9.206;2022-07-29T03:34:17;15.80;;;14.70;;
16994;SDS011;8614;48.522;9.206;2022-07-29T03:36:44;14.97;;;13.97;;
16994;SDS011;8614;48.522;9.206;2022-07-29T03:39:13;15.13;;;14.03;;
16994;SDS011;8614;48.522;9.206;2022-07-29T03:41:42;14.63;;;13.63;;
16994;SDS011;8614;48.522;9.206;2022-07-29T03:44:12;14.80;;;13.80;;
16994;SDS011;8614;48.522;9.206;2022-07-29T03:46:41;15.77;;;14.77;;
16994;SDS011;8614;48.522;9.206;2022-07-29T03:49:10;14.73;;;13.83;;
16994;SDS011;8614;48.522;9.206;2022-07-29T03:51:38;13.37;;;12.57;;
16994;SDS011;8614;48.522;9.206;2022-07-29T03:54:05;14.13;;;13.17;;
16994;SDS011;8614;48.522;9.206;2022-07-29T03:56:35;14.50;;;13.60;;
16994;SDS011;8614;48.522;9.206;2022-07-29T03:59:05;14.70;;;13.70;;
16994;SDS011;8614;48.522;9.206;2022-07-29T04:01:33;14.97;;;13.97;;
16994;SDS011;8614;48.522;9.206;2022-07-29T04:04:00;14.03;;;13.13;;
16994;SDS011;8614;48.522;9.206;2022-07-29T04:06:28;14.97;;;13.97;;
16994;SDS011;8614;48.522;9.206;2022-07-29T04:09:03;14.37;;;13.37;;
16994;SDS011;8614;48.522;9.206;2022-07-29T04:11:29;14.77;;;13.77;;
16994;SDS011;8614;48.522;9.206;2022-07-29T04:13:58;14.90;;;13.90;;
16994;SDS011;8614;48.522;9.206;2022-07-29T04:16:24;14.90;;;13.90;;
16994;SDS011;8614;48.522;9.206;2022-07-29T04:18:51;15.60;;;14.53;;
16994;SDS011;8614;48.522;9.206;2022-07-29T04:21:18;15.20;;;14.20;;
16994;SDS011;8614;48.522;9.206;2022-07-29T04:23:45;14.53;;;13.63;;
16994;SDS011;8614;48.522;9.206;2022-07-29T04:26:14;14.80;;;13.80;;
16994;SDS011;8614;48.522;9.206;2022-07-29T04:28:41;14.97;;;13.90;;
16994;SDS011;8614;48.522;9.206;2022-07-29T04:31:10;14.10;;;13.20;;
16994;SDS011;8614;48.522;9.206;2022-07-29T04:33:37;14.23;;;13.33;;
16994;SDS011;8614;48.522;9.206;2022-07-29T04:36:04;14.47;;;13.53;;
16994;SDS011;8614;48.522;9.206;2022-07-29T04:38:31;13.70;;;12.80;;
16994;SDS011;8614;48.522;9.206;2022-07-29T04:40:58;14.03;;;13.13;;
16994;SDS011;8614;48.522;9.206;2022-07-29T04:43:25;15.13;;;14.03;;
16994;SDS011;8614;48.522;9.206;2022-07-29T04:45:51;14.67;;;13.67;;
16994;SDS011;8614;48.522;9.206;2022-07-29T04:48:19;15.27;;;14.17;;
16994;SDS011;8614;48.522;9.206;2022-07-29T04:50:46;13.87;;;12.90;;
16994;SDS011;8614;48.522;9.206;2022-07-29T04:53:13;14.70;;;13.70;;
16994;SDS011;8614;48.522;9.206;2022-07-29T04:55:40;13.10;;;12.30;;
16994;SDS011;8614;48.522;9.206;2022-07-29T04:58:06;14.13;;;13.13;;
16994;SDS011;8614;48.522;9.206;2022-07-29T05:00:33;13.67;;;12.77;;
16994;SDS011;8614;48.522;9.206;2022-07-29T05:03:00;11.23;;;10.43;;
16994;SDS011;8614;48.522;9.206;2022-07-29T05:05:28;11.30;;;10.50;;
16994;SDS011;8614;48.522;9.206;2022-07-29T05:07:55;12.00;;;11.20;;
16994;SDS011;8614;48.522;9.206;2022-07-29T05:10:22;13.50;;;12.60;;
16994;SDS011;8614;48.522;9.206;2022-07-29T05:12:49;14.47;;;13.47;;
16994;SDS011;8614;48.522;9.206;2022-07-29T05:15:16;13.73;;;12.83;;
16994;SDS011;8614;48.522;9.206;2022-07-29T05:17:43;14.30;;;13.40;;
16994;SDS011;8614;48.522;9.206;2022-07-29T05:20:10;14.37;;;13.47;;
16994;SDS011;8614;48.522;9.206;2022-07-29T05:22:38;16.07;;;15.07;;
16994;SDS011;8614;48.522;9.206;2022-07-29T05:25:05;15.90;;;14.90;;
16994;SDS011;8614;48.522;9.206;2022-07-29T05:27:34;14.13;;;13.23;;
16994;SDS011;8614;48.522;9.206;2022-07-29T05:30:01;15.47;;;14.47;;
16994;SDS011;8614;48.522;9.206;2022-07-29T05:32:28;10.43;;;9.73;;
16994;SDS011;8614;48.522;9.206;2022-07-29T05:34:55;9.83;;;9.13;;
16994;SDS011;8614;48.522;9.206;2022-07-29T05:37:22;10.03;;;9.23;;
16994;SDS011;8614;48.522;9.206;2022-07-29T05:39:50;10.73;;;10.03;;
16994;SDS011;8614;48.522;9.206;2022-07-29T05:42:17;11.67;;;10.87;;
16994;SDS011;8614;48.522;9.206;2022-07-29T05:44:43;11.30;;;10.50;;
16994;SDS011;8614;48.522;9.206;2022-07-29T05:47:10;11.37;;;10.57;;
16994;SDS011;8614;48.522;9.206;2022-07-29T05:49:37;11.80;;;11.00;;
16994;SDS011;8614;48.522;9.206;2022-07-29T05:52:04;6.50;;;5.90;;
16994;SDS011;8614;48.522;9.206;2022-07-29T05:54:31;6.03;;;5.37;;
16994;SDS011;8614;48.522;9.206;2022-07-29T05:56:59;6.73;;;5.00;;
16994;SDS011;8614;48.522;9.206;2022-07-29T05:59:26;4.97;;;4.57;;
16994;SDS011;8614;48.522;9.206;2022-07-29T06:01:53;5.20;;;4.63;;
16994;SDS011;8614;48.522;9.206;2022-07-29T06:04:21;4.60;;;4.20;;
16994;SDS011;8614;48.522;9.206;2022-07-29T06:06:48;7.30;;;6.70;;
16994;SDS011;8614;48.522;9.206;2022-07-29T06:09:15;7.97;;;7.27;;
16994;SDS011;8614;48.522;9.206;2022-07-29T06:11:42;9.83;;;9.13;;
16994;SDS011;8614;48.522;9.206;2022-07-29T06:14:10;9.87;;;9.17;;
16994;SDS011;8614;48.522;9.206;2022-07-29T06:16:37;10.37;;;9.67;;
16994;SDS011;8614;48.522;9.206;2022-07-29T06:19:03;10.17;;;9.47;;
16994;SDS011;8614;48.522;9.206;2022-07-29T06:21:30;9.70;;;9.10;;
16994;SDS011;8614;48.522;9.206;2022-07-29T06:23:57;9.70;;;8.90;;
16994;SDS011;8614;48.522;9.206;2022-07-29T06:26:24;9.97;;;9.27;;
16994;SDS011;8614;48.522;9.206;2022-07-29T06:28:51;8.87;;;8.27;;
16994;SDS011;8614;48.522;9.206;2022-07-29T06:31:19;9.77;;;9.07;;
16994;SDS011;8614;48.522;9.206;2022-07-29T06:33:46;9.63;;;8.93;;
16994;SDS011;8614;48.522;9.206;2022-07-29T06:36:12;9.10;;;8.50;;
16994;SDS011;8614;48.522;9.206;2022-07-29T06:38:39;10.13;;;9.27;;
16994;SDS011;8614;48.522;9.206;2022-07-29T06:41:06;9.40;;;8.80;;
16994;SDS011;8614;48.522;9.206;2022-07-29T06:43:38;9.13;;;8.43;;
16994;SDS011;8614;48.522;9.206;2022-07-29T06:46:06;8.57;;;7.97;;
16994;SDS011;8614;48.522;9.206;2022-07-29T06:48:36;8.90;;;8.30;;
16994;SDS011;8614;48.522;9.206;2022-07-29T06:51:04;10.67;;;9.80;;
16994;SDS011;8614;48.522;9.206;2022-07-29T06:53:32;8.97;;;8.37;;
16994;SDS011;8614;48.522;9.206;2022-07-29T06:55:59;10.67;;;9.87;;
16994;SDS011;8614;48.522;9.206;2022-07-29T06:58:27;10.23;;;9.53;;
16994;SDS011;8614;48.522;9.206;2022-07-29T07:00:55;9.10;;;8.40;;
16994;SDS011;8614;48.522;9.206;2022-07-29T07:03:22;7.87;;;7.33;;
16994;SDS011;8614;48.522;9.206;2022-07-29T07:05:51;9.27;;;7.97;;
16994;SDS011;8614;48.522;9.206;2022-07-29T07:08:19;8.30;;;7.60;;
16994;SDS011;8614;48.522;9.206;2022-07-29T07:10:48;8.10;;;7.33;;
16994;SDS011;8614;48.522;9.206;2022-07-29T07:13:14;9.60;;;8.90;;
16994;SDS011;8614;48.522;9.206;2022-07-29T07:15:42;9.13;;;8.20;;
16994;SDS011;8614;48.522;9.206;2022-07-29T07:18:09;8.77;;;8.10;;
16994;SDS011;8614;48.522;9.206;2022-07-29T07:20:36;8.90;;;8.30;;
16994;SDS011;8614;48.522;9.206;2022-07-29T07:23:04;9.10;;;8.50;;
16994;SDS011;8614;48.522;9.206;2022-07-29T07:25:31;9.03;;;8.23;;
16994;SDS011;8614;48.522;9.206;2022-07-29T07:27:58;9.03;;;8.30;;
16994;SDS011;8614;48.522;9.206;2022-07-29T07:30:25;8.77;;;8.10;;
16994;SDS011;8614;48.522;9.206;2022-07-29T07:32:52;9.10;;;8.40;;
16994;SDS011;8614;48.522;9.206;2022-07-29T07:35:19;8.73;;;8.03;;
16994;SDS011;8614;48.522;9.206;2022-07-29T07:37:46;9.03;;;8.43;;
16994;SDS011;8614;48.522;9.206;2022-07-29T07:40:14;9.20;;;8.43;;
16994;SDS011;8614;48.522;9.206;2022-07-29T07:42:41;9.13;;;8.33;;
16994;SDS011;8614;48.522;9.206;2022-07-29T07:45:08;8.70;;;8.10;;
16994;SDS011;8614;48.522;9.206;2022-07-29T07:47:35;8.73;;;8.13;;
16994;SDS011;8614;48.522;9.206;2022-07-29T07:50:03;8.40;;;7.60;;
16994;SDS011;8614;48.522;9.206;2022-07-29T07:52:31;8.90;;;8.30;;
16994;SDS011;8614;48.522;9.206;2022-07-29T07:54:57;8.57;;;7.87;;
16994;SDS011;8614;48.522;9.206;2022-07-29T07:57:26;8.17;;;7.60;;
16994;SDS011;8614;48.522;9.206;2022-07-29T07:59:53;8.57;;;7.97;;
16994;SDS011;8614;48.522;9.206;2022-07-29T08:02:19;9.00;;;8.20;;
16994;SDS011;8614;48.522;9.206;2022-07-29T08:04:46;8.23;;;7.73;;
16994;SDS011;8614;48.522;9.206;2022-07-29T08:07:13;8.87;;;8.17;;
16994;SDS011;8614;48.522;9.206;2022-07-29T08:09:40;8.90;;;8.30;;
16994;SDS011;8614;48.522;9.206;2022-07-29T08:12:07;9.40;;;8.60;;
16994;SDS011;8614;48.522;9.206;2022-07-29T08:14:35;9.00;;;8.30;;
16994;SDS011;8614;48.522;9.206;2022-07-29T08:17:02;8.33;;;7.80;;
16994;SDS011;8614;48.522;9.206;2022-07-29T08:19:29;8.10;;;7.50;;
16994;SDS011;8614;48.522;9.206;2022-07-29T08:21:56;8.47;;;7.77;;
16994;SDS011;8614;48.522;9.206;2022-07-29T08:24:23;9.33;;;7.40;;
16994;SDS011;8614;48.522;9.206;2022-07-29T08:27:07;7.60;;;7.00;;
16994;SDS011;8614;48.522;9.206;2022-07-29T08:29:36;8.80;;;6.40;;
16994;SDS011;8614;48.522;9.206;2022-07-29T08:32:03;7.10;;;6.50;;
16994;SDS011;8614;48.522;9.206;2022-07-29T08:34:31;7.60;;;7.00;;
16994;SDS011;8614;48.522;9.206;2022-07-29T08:36:58;7.03;;;6.53;;
16994;SDS011;8614;48.522;9.206;2022-07-29T08:39:25;6.63;;;6.13;;
16994;SDS011;8614;48.522;9.206;2022-07-29T08:41:52;6.70;;;6.20;;
16994;SDS011;8614;48.522;9.206;2022-07-29T08:44:20;6.40;;;5.80;;
16994;SDS011;8614;48.522;9.206;2022-07-29T08:46:49;3.60;;;3.30;;
16994;SDS011;8614;48.522;9.206;2022-07-29T08:49:16;4.83;;;4.33;;
16994;SDS011;8614;48.522;9.206;2022-07-29T08:51:43;6.17;;;3.83;;
16994;SDS011;8614;48.522;9.206;2022-07-29T08:54:11;6.23;;;4.03;;
16994;SDS011;8614;48.522;9.206;2022-07-29T08:56:43;4.30;;;3.37;;
16994;SDS011;8614;48.522;9.206;2022-07-29T08:59:11;3.63;;;3.33;;
16994;SDS011;8614;48.522;9.206;2022-07-29T09:01:40;6.03;;;4.23;;
16994;SDS011;8614;48.522;9.206;2022-07-29T09:04:11;4.17;;;3.77;;
16994;SDS011;8614;48.522;9.206;2022-07-29T09:06:41;5.87;;;5.37;;
16994;SDS011;8614;48.522;9.206;2022-07-29T09:09:10;5.77;;;3.50;;
16994;SDS011;8614;48.522;9.206;2022-07-29T09:11:38;5.80;;;5.30;;
16994;SDS011;8614;48.522;9.206;2022-07-29T09:14:05;5.50;;;5.00;;
16994;SDS011;8614;48.522;9.206;2022-07-29T09:19:21;6.07;;;5.57;;
16994;SDS011;8614;48.522;9.206;2022-07-29T09:21:52;4.57;;;4.20;;
16994;SDS011;8614;48.522;9.206;2022-07-29T09:24:26;4.53;;;3.60;;
16994;SDS011;8614;48.522;9.206;2022-07-29T09:27:04;4.30;;;3.50;;
16994;SDS011;8614;48.522;9.206;2022-07-29T09:29:34;8.00;;;7.33;;
16994;SDS011;8614;48.522;9.206;2022-07-29T09:32:02;5.50;;;5.07;;
16994;SDS011;8614;48.522;9.206;2022-07-29T09:34:36;7.87;;;7.27;;
16994;SDS011;8614;48.522;9.206;2022-07-29T09:37:03;7.50;;;6.90;;
16994;SDS011;8614;48.522;9.206;2022-07-29T09:39:30;7.13;;;6.57;;
16994;SDS011;8614;48.522;9.206;2022-07-29T09:41:59;7.27;;;6.67;;
16994;SDS011;8614;48.522;9.206;2022-07-29T09:44:40;6.47;;;3.90;;
16994;SDS011;8614;48.522;9.206;2022-07-29T09:47:08;4.87;;;3.40;;
16994;SDS011;8614;48.522;9.206;2022-07-29T09:49:49;6.03;;;3.80;;
16994;SDS011;8614;48.522;9.206;2022-07-29T09:52:17;4.83;;;3.50;;
16994;SDS011;8614;48.522;9.206;2022-07-29T09:54:45;6.20;;;3.63;;
16994;SDS011;8614;48.522;9.206;2022-07-29T09:57:22;6.60;;;4.00;;
16994;SDS011;8614;48.522;9.206;2022-07-29T09:59:57;7.40;;;6.80;;
16994;SDS011;8614;48.522;9.206;2022-07-29T10:02:29;5.10;;;4.60;;
16994;SDS011;8614;48.522;9.206;2022-07-29T10:04:58;7.40;;;6.63;;
16994;SDS011;8614;48.522;9.206;2022-07-29T10:07:26;7.23;;;6.63;;
16994;SDS011;8614;48.522;9.206;2022-07-29T10:10:08;6.40;;;6.00;;
16994;SDS011;8614;48.522;9.206;2022-07-29T10:12:38;7.30;;;6.70;;
16994;SDS011;8614;48.522;9.206;2022-07-29T10:15:15;7.72;;;7.03;;
16994;SDS011;8614;48.522;9.206;2022-07-29T10:17:42;7.80;;;7.10;;
16994;SDS011;8614;48.522;9.206;2022-07-29T10:20:11;7.53;;;7.03;;
16994;SDS011;8614;48.522;9.206;2022-07-29T10:22:38;7.60;;;7.00;;
16994;SDS011;8614;48.522;9.206;2022-07-29T10:25:06;7.27;;;6.77;;
16994;SDS011;8614;48.522;9.206;2022-07-29T10:27:34;8.43;;;7.60;;
16994;SDS011;8614;48.522;9.206;2022-07-29T10:30:02;8.20;;;7.23;;
16994;SDS011;8614;48.522;9.206;2022-07-29T10:35:26;7.63;;;6.93;;
16994;SDS011;8614;48.522;9.206;2022-07-29T10:38:04;7.90;;;7.30;;
16994;SDS011;8614;48.522;9.206;2022-07-29T10:40:43;8.03;;;7.33;;
16994;SDS011;8614;48.522;9.206;2022-07-29T10:43:36;8.00;;;7.23;;
16994;SDS011;8614;48.522;9.206;2022-07-29T10:46:08;7.70;;;6.97;;
16994;SDS011;8614;48.522;9.206;2022-07-29T10:48:35;7.83;;;7.23;;
16994;SDS011;8614;48.522;9.206;2022-07-29T10:51:52;7.87;;;7.27;;
16994;SDS011;8614;48.522;9.206;2022-07-29T10:54:36;7.70;;;7.10;;
16994;SDS011;8614;48.522;9.206;2022-07-29T10:57:10;7.97;;;7.20;;
16994;SDS011;8614;48.522;9.206;2022-07-29T10:59:41;8.00;;;7.20;;
16994;SDS011;8614;48.522;9.206;2022-07-29T11:05:09;7.23;;;6.63;;
16994;SDS011;8614;48.522;9.206;2022-07-29T11:07:39;7.70;;;7.10;;
16994;SDS011;8614;48.522;9.206;2022-07-29T11:10:26;8.03;;;7.40;;
16994;SDS011;8614;48.522;9.206;2022-07-29T11:12:53;7.37;;;6.67;;
16994;SDS011;8614;48.522;9.206;2022-07-29T11:15:20;7.60;;;7.10;;
16994;SDS011;8614;48.522;9.206;2022-07-29T11:18:07;7.60;;;7.00;;
16994;SDS011;8614;48.522;9.206;2022-07-29T11:20:39;7.70;;;7.00;;
16994;SDS011;8614;48.522;9.206;2022-07-29T11:23:21;7.30;;;6.67;;
16994;SDS011;8614;48.522;9.206;2022-07-29T11:28:43;7.13;;;6.63;;
16994;SDS011;8614;48.522;9.206;2022-07-29T11:31:19;7.27;;;6.63;;
16994;SDS011;8614;48.522;9.206;2022-07-29T11:33:57;7.00;;;6.30;;
16994;SDS011;8614;48.522;9.206;2022-07-29T11:39:43;7.50;;;6.80;;
16994;SDS011;8614;48.522;9.206;2022-07-29T11:45:04;6.17;;;5.67;;
16994;SDS011;8614;48.522;9.206;2022-07-29T11:47:34;6.37;;;5.83;;
16994;SDS011;8614;48.522;9.206;2022-07-29T11:50:03;5.63;;;5.10;;
16994;SDS011;8614;48.522;9.206;2022-07-29T11:52:32;7.20;;;6.60;;
16994;SDS011;8614;48.522;9.206;2022-07-29T11:55:04;6.00;;;5.50;;
16994;SDS011;8614;48.522;9.206;2022-07-29T11:57:33;7.13;;;5.50;;
16994;SDS011;8614;48.522;9.206;2022-07-29T12:00:03;7.63;;;6.83;;
16994;SDS011;8614;48.522;9.206;2022-07-29T12:02:39;8.13;;;7.40;;
16994;SDS011;8614;48.522;9.206;2022-07-29T12:05:07;7.93;;;7.13;;
16994;SDS011;8614;48.522;9.206;2022-07-29T12:07:34;7.97;;;7.23;;
16994;SDS011;8614;48.522;9.206;2022-07-29T12:10:02;8.20;;;7.50;;
16994;SDS011;8614;48.522;9.206;2022-07-29T12:12:31;7.97;;;7.20;;
16994;SDS011;8614;48.522;9.206;2022-07-29T12:15:09;7.80;;;7.13;;
16994;SDS011;8614;48.522;9.206;2022-07-29T12:17:37;7.50;;;6.90;;
16994;SDS011;8614;48.522;9.206;2022-07-29T12:20:05;7.70;;;7.00;;
16994;SDS011;8614;48.522;9.206;2022-07-29T12:22:34;8.93;;;7.83;;
16994;SDS011;8614;48.522;9.206;2022-07-29T12:25:05;7.67;;;6.90;;
16994;SDS011;8614;48.522;9.206;2022-07-29T12:27:34;7.20;;;6.60;;
16994;SDS011;8614;48.522;9.206;2022-07-29T12:30:03;6.90;;;6.27;;
16994;SDS011;8614;48.522;9.206;2022-07-29T12:32:32;6.53;;;6.03;;
16994;SDS011;8614;48.522;9.206;2022-07-29T12:35:00;6.83;;;6.27;;
16994;SDS011;8614;48.522;9.206;2022-07-29T12:37:30;6.87;;;6.37;;
16994;SDS011;8614;48.522;9.206;2022-07-29T12:39:58;6.77;;;6.17;;
16994;SDS011;8614;48.522;9.206;2022-07-29T12:42:27;6.67;;;6.17;;
16994;SDS011;8614;48.522;9.206;2022-07-29T12:44:53;7.07;;;6.47;;
16994;SDS011;8614;48.522;9.206;2022-07-29T12:47:20;6.80;;;6.20;;
16994;SDS011;8614;48.522;9.206;2022-07-29T12:49:48;6.57;;;5.97;;
16994;SDS011;8614;48.522;9.206;2022-07-29T12:52:29;6.70;;;6.20;;
16994;SDS011;8614;48.522;9.206;2022-07-29T12:54:58;7.10;;;6.50;;
16994;SDS011;8614;48.522;9.206;2022-07-29T12:57:27;7.20;;;6.50;;
16994;SDS011;8614;48.522;9.206;2022-07-29T13:00:02;6.80;;;6.20;;
16994;SDS011;8614;48.522;9.206;2022-07-29T13:02:32;6.67;;;6.17;;
16994;SDS011;8614;48.522;9.206;2022-07-29T13:05:00;6.60;;;6.10;;
16994;SDS011;8614;48.522;9.206;2022-07-29T13:07:30;7.43;;;6.40;;
16994;SDS011;8614;48.522;9.206;2022-07-29T13:10:10;6.80;;;6.10;;
16994;SDS011;8614;48.522;9.206;2022-07-29T13:12:40;6.60;;;6.10;;
16994;SDS011;8614;48.522;9.206;2022-07-29T13:15:30;6.50;;;5.90;;
16994;SDS011;8614;48.522;9.206;2022-07-29T13:17:58;6.63;;;6.03;;
16994;SDS011;8614;48.522;9.206;2022-07-29T13:20:25;6.60;;;6.10;;
16994;SDS011;8614;48.522;9.206;2022-07-29T13:22:54;6.80;;;6.10;;
16994;SDS011;8614;48.522;9.206;2022-07-29T13:25:26;7.27;;;6.63;;
16994;SDS011;8614;48.522;9.206;2022-07-29T13:27:55;6.90;;;6.30;;
16994;SDS011;8614;48.522;9.206;2022-07-29T13:30:22;6.70;;;6.20;;
16994;SDS011;8614;48.522;9.206;2022-07-29T13:32:50;7.23;;;6.63;;
16994;SDS011;8614;48.522;9.206;2022-07-29T13:35:17;7.30;;;6.60;;
16994;SDS011;8614;48.522;9.206;2022-07-29T13:37:45;7.37;;;6.77;;
16994;SDS011;8614;48.522;9.206;2022-07-29T13:40:12;11.77;;;7.60;;
16994;SDS011;8614;48.522;9.206;2022-07-29T13:42:40;7.23;;;6.63;;
16994;SDS011;8614;48.522;9.206;2022-07-29T13:45:09;8.43;;;6.93;;
16994;SDS011;8614;48.522;9.206;2022-07-29T13:47:37;7.27;;;6.57;;
16994;SDS011;8614;48.522;9.206;2022-07-29T13:50:05;7.63;;;6.93;;
16994;SDS011;8614;48.522;9.206;2022-07-29T13:52:35;7.57;;;7.03;;
16994;SDS011;8614;48.522;9.206;2022-07-29T13:55:02;7.90;;;7.13;;
16994;SDS011;8614;48.522;9.206;2022-07-29T13:57:30;7.70;;;7.00;;
16994;SDS011;8614;48.522;9.206;2022-07-29T13:59:57;8.20;;;7.50;;
16994;SDS011;8614;48.522;9.206;2022-07-29T14:02:25;7.37;;;6.77;;
16994;SDS011;8614;48.522;9.206;2022-07-29T14:04:52;7.50;;;7.00;;
16994;SDS011;8614;48.522;9.206;2022-07-29T14:07:19;7.20;;;6.70;;
16994;SDS011;8614;48.522;9.206;2022-07-29T14:09:46;7.43;;;6.80;;
16994;SDS011;8614;48.522;9.206;2022-07-29T14:12:13;7.87;;;7.17;;
16994;SDS011;8614;48.522;9.206;2022-07-29T14:14:40;8.27;;;7.57;;
16994;SDS011;8614;48.522;9.206;2022-07-29T14:17:07;7.90;;;7.30;;
16994;SDS011;8614;48.522;9.206;2022-07-29T14:19:35;7.97;;;7.30;;
16994;SDS011;8614;48.522;9.206;2022-07-29T14:22:04;8.33;;;7.73;;
16994;SDS011;8614;48.522;9.206;2022-07-29T14:24:32;8.13;;;7.57;;
16994;SDS011;8614;48.522;9.206;2022-07-29T14:26:59;7.93;;;7.30;;
16994;SDS011;8614;48.522;9.206;2022-07-29T14:29:25;8.03;;;7.43;;
16994;SDS011;8614;48.522;9.206;2022-07-29T14:31:53;7.93;;;7.33;;
16994;SDS011;8614;48.522;9.206;2022-07-29T14:34:19;8.17;;;7.50;;
16994;SDS011;8614;48.522;9.206;2022-07-29T14:36:48;8.13;;;7.53;;
16994;SDS011;8614;48.522;9.206;2022-07-29T14:39:14;8.00;;;7.40;;
16994;SDS011;8614;48.522;9.206;2022-07-29T14:41:42;7.77;;;7.07;;
16994;SDS011;8614;48.522;9.206;2022-07-29T14:44:09;7.70;;;7.10;;
16994;SDS011;8614;48.522;9.206;2022-07-29T14:46:35;8.03;;;7.37;;
16994;SDS011;8614;48.522;9.206;2022-07-29T14:49:02;6.90;;;6.30;;
16994;SDS011;8614;48.522;9.206;2022-07-29T14:51:29;7.83;;;7.07;;
16994;SDS011;8614;48.522;9.206;2022-07-29T14:53:58;6.70;;;6.20;;
16994;SDS011;8614;48.522;9.206;2022-07-29T14:56:25;7.57;;;6.97;;
16994;SDS011;8614;48.522;9.206;2022-07-29T14:58:52;7.17;;;6.60;;
16994;SDS011;8614;48.522;9.206;2022-07-29T15:01:18;7.00;;;6.50;;
16994;SDS011;8614;48.522;9.206;2022-07-29T15:03:45;7.00;;;6.50;;
16994;SDS011;8614;48.522;9.206;2022-07-29T15:06:12;7.33;;;6.83;;
16994;SDS011;8614;48.522;9.206;2022-07-29T15:08:39;6.70;;;6.10;;
16994;SDS011;8614;48.522;9.206;2022-07-29T15:11:07;5.90;;;4.07;;
16994;SDS011;8614;48.522;9.206;2022-07-29T15:13:34;3.50;;;3.20;;
16994;SDS011;8614;48.522;9.206;2022-07-29T15:16:01;4.27;;;3.87;;
16994;SDS011;8614;48.522;9.206;2022-07-29T15:18:28;3.90;;;3.60;;
16994;SDS011;8614;48.522;9.206;2022-07-29T15:20:55;6.13;;;5.73;;
16994;SDS011;8614;48.522;9.206;2022-07-29T15:23:21;6.97;;;6.33;;
16994;SDS011;8614;48.522;9.206;2022-07-29T15:25:48;6.20;;;5.80;;
16994;SDS011;8614;48.522;9.206;2022-07-29T15:28:17;6.20;;;5.60;;